Sandy City
, Sandy
Last Weather Update:11/25/2011 8:00:00 AM
Date
ETo
ETc
Rain
Irrigation
Req
Temp
Max
Temp
Min
Temp
Avg
Avg RH
Avg Wind
Avg Solar
inches
inches
incehs
inches
F
F
F
%
%
watts/m2
10/1/2011 0.14" 0.08" 0.00" 0.08" 84.8° 61.6° 74.2° 33.1% 0.8 MPH 232.4w/m2
10/2/2011 0.14" 0.08" 0.00" 0.08" 83.3° 60.9° 71.3° 39.6% 0.6 MPH 238.1w/m2
10/3/2011 0.12" 0.07" 0.00" 0.07" 84.4° 56.1° 68.8° 48.8% 0.5 MPH 211.3w/m2
10/4/2011 0.12" 0.06" 0.03" 0.04" 75.3° 57.4° 65.9° 61.3% 0.7 MPH 217.4w/m2
10/5/2011 0.04" 0.02" 0.55" -0.42" 63.3° 40.2° 55.9° 73.8% 1.1 MPH 68.6w/m2
10/6/2011 0.03" 0.02" 0.89" -0.70" 47.3° 33.0° 40.5° 87.9% 0.6 MPH 82.5w/m2
10/7/2011 0.03" 0.01" 0.02" 0.00" 46.2° 39.3° 42.9° 80.1% 0.7 MPH 61.1w/m2
10/8/2011 0.06" 0.02" 0.14" -0.09" 52.4° 39.7° 44.9° 90.7% 0.3 MPH 130.8w/m2
10/9/2011 0.10" 0.04" 0.00" 0.04" 61.5° 35.1° 47.1° 77.2% 0.2 MPH 228.4w/m2
10/10/2011 0.08" 0.03" 0.00" 0.03" 63.7° 38.5° 51.2° 70.0% 0.5 MPH 167.0w/m2
10/11/2011 0.07" 0.03" 0.04" 0.00" 68.2° 48.6° 55.7° 76.4% 0.3 MPH 141.8w/m2
10/12/2011 0.10" 0.04" 0.00" 0.04" 65.8° 40.5° 52.1° 69.0% 0.2 MPH 210.4w/m2
10/13/2011 0.10" 0.03" 0.00" 0.03" 73.8° 40.1° 54.5° 64.1% 0.2 MPH 195.1w/m2
10/14/2011 0.11" 0.04" 0.00" 0.04" 77.1° 44.2° 58.7° 59.9% 0.2 MPH 209.9w/m2
10/15/2011 0.11" 0.03" 0.00" 0.03" 82.0° 49.9° 63.3° 55.1% 0.3 MPH 201.2w/m2
10/16/2011 0.08" 0.02" 0.02" 0.01" 74.4° 48.0° 60.4° 58.8% 0.4 MPH 141.8w/m2
10/17/2011 0.10" 0.03" 0.03" 0.00" 59.7° 42.0° 52.4° 73.8% 0.4 MPH 211.2w/m2
10/18/2011 0.10" 0.02" 0.00" 0.02" 61.8° 36.0° 48.0° 68.9% 0.2 MPH 206.6w/m2
10/19/2011 0.10" 0.02" 0.00" 0.02" 65.8° 36.8° 50.3° 66.7% 0.2 MPH 202.3w/m2
10/20/2011 0.10" 0.02" 0.00" 0.02" 68.0° 38.4° 52.3° 66.1% 0.1 MPH 195.1w/m2
10/21/2011 0.09" 0.02" 0.00" 0.02" 69.5° 42.9° 54.3° 61.1% 0.2 MPH 191.9w/m2
10/22/2011 0.09" 0.02" 0.00" 0.02" 66.8° 40.5° 52.8° 62.3% 0.2 MPH 187.1w/m2
10/23/2011 0.10" 0.01" 0.00" 0.01" 71.7° 39.4° 53.2° 63.9% 0.2 MPH 192.7w/m2
10/24/2011 0.09" 0.01" 0.00" 0.01" 75.0° 45.1° 58.8° 47.4% 0.5 MPH 180.8w/m2
10/25/2011 0.04" 0.00" 0.00" 0.00" 54.8° 41.0° 47.6° 60.0% 0.3 MPH 107.0w/m2
10/26/2011 0.07" 0.01" 0.00" 0.01" 48.4° 31.5° 39.8° 60.8% 0.4 MPH 181.3w/m2
10/27/2011 0.07" 0.01" 0.00" 0.01" 51.6° 25.8° 37.4° 55.5% 0.1 MPH 183.7w/m2
10/28/2011 0.07" 0.00" 0.00" 0.00" 57.6° 26.6° 39.9° 51.1% 0.1 MPH 171.6w/m2
10/29/2011 0.06" 0.00" 0.00" 0.00" 60.6° 29.0° 42.6° 50.3% 0.1 MPH 122.0w/m2
10/30/2011 0.08" 0.00" 0.00" 0.00" 63.2° 32.3° 46.5° 61.8% 0.1 MPH 176.8w/m2
10/31/2011 0.08" 0.00" 0.00" 0.00" 67.2° 35.6° 49.9° 60.5% 0.2 MPH 172.3w/m2
Totals: 2.68" 0.82" 1.72" -0.56" 84.8° 25.8° 52.7° 63.1% 0.4 MPH 174.8w/m2